createdAt,value
2018-04-18T00:00:59.938Z,102534.05
2018-04-18T00:02:08.299Z,102532.81
2018-04-18T00:03:12.526Z,102532.83
2018-04-18T00:04:16.782Z,102537.12
2018-04-18T00:05:27.612Z,102531.09
2018-04-18T00:06:37.486Z,102532.83
2018-04-18T00:07:41.750Z,102533.27
2018-04-18T00:08:45.967Z,102537.53
2018-04-18T00:09:56.449Z,102531.55
2018-04-18T00:11:08.548Z,102544.89
2018-04-18T00:12:14.294Z,102541.08
2018-04-18T00:13:21.046Z,102540.25
2018-04-18T00:14:29.866Z,102543.34
2018-04-18T00:15:36.337Z,102541.66
2018-04-18T00:16:40.740Z,102538.27
2018-04-18T00:17:44.962Z,102537.42
2018-04-18T00:18:53.744Z,102540.49
2018-04-18T00:20:02.352Z,102540.06
2018-04-18T00:21:08.395Z,102540.15
2018-04-18T00:22:13.374Z,102539.27
2018-04-18T00:23:18.151Z,102540.59
2018-04-18T00:24:27.050Z,102538.47
2018-04-18T00:25:36.266Z,102542.77
2018-04-18T00:26:40.477Z,102536.30
2018-04-18T00:27:44.852Z,102538.47
2018-04-18T00:28:50.534Z,102540.56
2018-04-18T00:30:00.986Z,102544.41
2018-04-18T00:31:07.589Z,102541.84
2018-04-18T00:32:11.864Z,102543.97
2018-04-18T00:33:16.061Z,102544.81
2018-04-18T00:34:25.979Z,102547.83
2018-04-18T00:35:36.342Z,102546.53
2018-04-18T00:36:40.540Z,102544.81
2018-04-18T00:37:45.513Z,102549.95
2018-04-18T00:38:53.772Z,102547.82
2018-04-18T00:40:06.052Z,102546.09
2018-04-18T00:41:10.406Z,102543.52
2018-04-18T00:42:14.657Z,102547.83
2018-04-18T00:43:24.160Z,102551.28
2018-04-18T00:44:30.987Z,102553.02
2018-04-18T00:45:37.711Z,102555.15
2018-04-18T00:46:42.097Z,102553.86
2018-04-18T00:47:47.062Z,102550.05
2018-04-18T00:48:56.808Z,102552.61
2018-04-18T00:50:05.274Z,102556.03
2018-04-18T00:51:10.242Z,102550.89
2018-04-18T00:52:14.646Z,102550.89
2018-04-18T00:53:21.669Z,102555.59
2018-04-18T00:54:32.550Z,102550.05
2018-04-18T00:55:38.149Z,102553.90
2018-04-18T00:56:42.368Z,102554.30
2018-04-18T00:57:46.590Z,102556.88
2018-04-18T00:58:56.055Z,102556.03
2018-04-18T01:00:05.866Z,102556.03
2018-04-18T01:01:10.247Z,102550.02
2018-04-18T01:02:14.481Z,102548.32
2018-04-18T01:03:21.794Z,102555.16
2018-04-18T01:04:31.225Z,102551.30
2018-04-18T01:05:37.821Z,102555.60
2018-04-18T01:06:42.802Z,102555.60
2018-04-18T01:07:47.292Z,102554.31
2018-04-18T01:08:57.414Z,102554.76
2018-04-18T01:10:06.932Z,102554.35
2018-04-18T01:11:11.981Z,102558.61
2018-04-18T01:12:16.966Z,102554.35
2018-04-18T01:13:24.402Z,102556.48
2018-04-18T01:14:31.177Z,102560.38
2018-04-18T01:15:38.555Z,102556.52
2018-04-18T01:16:43.999Z,102560.78
2018-04-18T01:17:50.142Z,102558.21
2018-04-18T01:19:00.063Z,102559.09
2018-04-18T01:20:08.114Z,102559.09
2018-04-18T01:21:12.321Z,102555.23
2018-04-18T01:22:17.044Z,102558.25
2018-04-18T01:23:29.300Z,102559.09
2018-04-18T01:24:37.090Z,102558.65
2018-04-18T01:25:42.805Z,102563.83
2018-04-18T01:26:47.103Z,102558.25
2018-04-18T01:27:57.896Z,102556.11
2018-04-18T01:29:06.998Z,102561.26
2018-04-18T01:30:11.206Z,102560.81
2018-04-18T01:31:15.414Z,102565.95
2018-04-18T01:32:22.300Z,102566.37
2018-04-18T01:33:31.696Z,102568.53
2018-04-18T01:34:38.856Z,102567.66
2018-04-18T01:35:43.040Z,102567.66
2018-04-18T01:36:47.270Z,102566.80
2018-04-18T01:37:57.750Z,102572.39
2018-04-18T01:39:06.334Z,102570.70
2018-04-18T01:40:11.531Z,102577.53
2018-04-18T01:41:15.742Z,102574.98
2018-04-18T01:42:25.022Z,102571.98
2018-04-18T01:43:33.622Z,102573.70
2018-04-18T01:44:39.013Z,102577.55
2018-04-18T01:45:43.660Z,102574.14
2018-04-18T01:46:47.875Z,102574.14
2018-04-18T01:47:57.609Z,102574.58
2018-04-18T01:49:26.289Z,102575.02
2018-04-18T01:50:36.596Z,102577.98
2018-04-18T01:51:40.819Z,102578.02
2018-04-18T01:52:45.876Z,102577.58
2018-04-18T01:53:53.654Z,102585.72
2018-04-18T01:55:04.402Z,102579.30
2018-04-18T01:56:09.568Z,102582.30
2018-04-18T01:57:13.772Z,102581.87
2018-04-18T01:58:20.298Z,102580.17
2018-04-18T01:59:30.032Z,102584.03
2018-04-18T02:00:36.798Z,102584.88
2018-04-18T02:01:41.073Z,102584.44
2018-04-18T02:02:45.272Z,102591.73
2018-04-18T02:03:53.204Z,102590.45
2018-04-18T02:05:02.363Z,102592.14
2018-04-18T02:06:08.943Z,102593.03
2018-04-18T02:07:13.913Z,102595.59
2018-04-18T02:08:19.756Z,102596.47
2018-04-18T02:09:30.620Z,102595.60
2018-04-18T02:10:38.103Z,102599.04
2018-04-18T02:11:42.308Z,102601.19
2018-04-18T02:12:46.518Z,102598.17
2018-04-18T02:13:56.566Z,102607.19
2018-04-18T02:15:05.159Z,102602.46
2018-04-18T02:16:09.654Z,102604.16
2018-04-18T02:17:13.871Z,102606.30
2018-04-18T02:18:18.803Z,102605.45
2018-04-18T02:19:27.719Z,102602.89
2018-04-18T02:20:35.604Z,102605.87
2018-04-18T02:21:40.213Z,102608.44
2018-04-18T02:22:44.483Z,102606.72
2018-04-18T02:23:52.129Z,102605.02
2018-04-18T02:25:03.017Z,102611.88
2018-04-18T02:26:08.529Z,102606.74
2018-04-18T02:27:14.035Z,102610.16
2018-04-18T02:28:22.280Z,102614.42
2018-04-18T02:29:33.125Z,102609.72
2018-04-18T02:30:38.905Z,102615.28
2018-04-18T02:31:43.267Z,102613.98
2018-04-18T02:32:47.489Z,102613.15
2018-04-18T02:33:57.784Z,102611.02
2018-04-18T02:35:07.869Z,102615.28
2018-04-18T02:36:12.194Z,102616.13
2018-04-18T02:37:16.553Z,102617.83
2018-04-18T02:38:24.157Z,102617.84
2018-04-18T02:39:31.952Z,102619.11
2018-04-18T02:40:38.681Z,102621.69
2018-04-18T02:41:42.902Z,102619.97
2018-04-18T02:42:47.275Z,102616.98
2018-04-18T02:43:59.945Z,102619.55
2018-04-18T02:45:08.512Z,102623.81
2018-04-18T02:46:12.704Z,102621.25
2018-04-18T02:47:16.900Z,102624.65
2018-04-18T02:48:27.803Z,102619.92
2018-04-18T02:49:35.795Z,102628.44
2018-04-18T02:50:40.954Z,102627.16
2018-04-18T02:51:45.161Z,102631.00
2018-04-18T02:52:52.663Z,102630.56
2018-04-18T02:53:59.580Z,102632.71
2018-04-18T02:55:07.150Z,102630.16
2018-04-18T02:56:11.497Z,102632.72
2018-04-18T02:57:15.820Z,102633.55
2018-04-18T02:58:25.331Z,102636.54
2018-04-18T02:59:32.869Z,102637.80
2018-04-18T03:00:38.271Z,102630.95
2018-04-18T03:01:42.685Z,102633.92
2018-04-18T03:02:46.883Z,102637.77
2018-04-18T03:03:56.675Z,102633.05
2018-04-18T03:05:04.370Z,102632.20
2018-04-18T03:06:09.781Z,102634.77
2018-04-18T03:07:14.070Z,102633.52
2018-04-18T03:08:20.879Z,102634.37
2018-04-18T03:09:34.605Z,102631.36
2018-04-18T03:10:39.643Z,102636.49
2018-04-18T03:11:43.893Z,102634.36
2018-04-18T03:12:52.957Z,102636.49
2018-04-18T03:14:09.802Z,102636.51
2018-04-18T03:15:19.890Z,102638.62
2018-04-18T03:16:30.105Z,102639.91
2018-04-18T03:17:37.755Z,102636.92
2018-04-18T03:18:42.179Z,102639.04
2018-04-18T03:19:46.428Z,102643.71
2018-04-18T03:20:56.739Z,102643.72
2018-04-18T03:22:07.572Z,102641.60
2018-04-18T03:23:12.561Z,102637.34
2018-04-18T03:24:16.778Z,102642.46
2018-04-18T03:25:29.789Z,102642.45
2018-04-18T03:26:37.800Z,102639.89
2018-04-18T03:27:41.997Z,102647.59
2018-04-18T03:28:46.230Z,102647.13
2018-04-18T03:29:57.261Z,102649.27
2018-04-18T03:31:06.651Z,102646.68
2018-04-18T03:32:10.900Z,102649.25
2018-04-18T03:33:15.874Z,102644.55
2018-04-18T03:34:24.329Z,102647.08
2018-04-18T03:35:32.702Z,102652.22
2018-04-18T03:36:38.613Z,102650.92
2018-04-18T03:37:42.933Z,102655.22
2018-04-18T03:38:48.199Z,102657.78
2018-04-18T03:39:58.758Z,102659.52
2018-04-18T03:41:07.202Z,102659.52
2018-04-18T03:42:11.450Z,102661.66
2018-04-18T03:43:15.751Z,102663.39
2018-04-18T03:44:23.874Z,102662.11
2018-04-18T03:45:32.176Z,102661.70
2018-04-18T03:46:39.276Z,102662.56
2018-04-18T03:47:43.480Z,102667.28
2018-04-18T03:48:47.862Z,102667.27
2018-04-18T03:50:07.420Z,102662.14
2018-04-18T03:51:13.291Z,102664.28
2018-04-18T03:52:17.580Z,102668.56
2018-04-18T03:53:38.546Z,102662.17
2018-04-18T03:54:42.938Z,102665.56
2018-04-18T03:55:47.999Z,102663.42
2018-04-18T03:56:58.133Z,102663.86
2018-04-18T03:58:07.444Z,102660.43
2018-04-18T03:59:11.859Z,102665.56
2018-04-18T04:00:16.994Z,102663.84
2018-04-18T04:01:27.126Z,102668.46
2018-04-18T04:02:36.386Z,102662.86
2018-04-18T04:03:41.377Z,102667.99
2018-04-18T04:04:45.560Z,102669.23
2018-04-18T04:05:55.672Z,102668.39
2018-04-18T04:07:10.989Z,102667.09
2018-04-18T04:08:16.031Z,102670.91
2018-04-18T04:09:33.304Z,102670.02
2018-04-18T04:11:16.459Z,102676.00
2018-04-18T04:12:34.270Z,102676.84
2018-04-18T04:13:39.760Z,102674.66
2018-04-18T04:14:43.957Z,102674.20
2018-04-18T04:15:51.016Z,102677.16
2018-04-18T04:17:17.130Z,102678.82
2018-04-18T04:20:27.471Z,102681.74
2018-04-18T04:21:50.819Z,102682.17
2018-04-18T04:23:14.126Z,102683.42
2018-04-18T04:24:43.577Z,102685.94
2018-04-18T04:25:47.993Z,102685.08
2018-04-18T04:27:02.857Z,102688.97
2018-04-18T04:28:07.806Z,102691.95
2018-04-18T04:29:12.172Z,102689.39
2018-04-18T04:30:16.388Z,102690.26
2018-04-18T04:31:26.122Z,102691.16
2018-04-18T04:32:36.419Z,102691.58
2018-04-18T04:33:40.687Z,102697.58
2018-04-18T04:34:44.897Z,102697.59
2018-04-18T04:35:52.539Z,102692.51
2018-04-18T04:37:01.368Z,102698.50
2018-04-18T04:38:08.989Z,102696.33
2018-04-18T04:39:13.297Z,102703.20
2018-04-18T04:40:17.587Z,102703.18
2018-04-18T04:41:29.065Z,102704.48
2018-04-18T04:42:38.676Z,102703.67
2018-04-18T04:43:42.877Z,102709.67
2018-04-18T04:44:53.083Z,102704.96
2018-04-18T04:46:04.110Z,102708.37
2018-04-18T04:47:09.274Z,102709.64
2018-04-18T04:48:13.654Z,102709.58
2018-04-18T04:49:18.068Z,102714.71
2018-04-18T04:50:44.869Z,102708.34
2018-04-18T04:51:56.158Z,102707.50
2018-04-18T04:54:37.674Z,102716.58
2018-04-18T04:55:42.648Z,102714.47
2018-04-18T04:56:46.845Z,102717.50
2018-04-18T04:59:10.100Z,102717.56
2018-04-18T05:00:15.070Z,102723.14
2018-04-18T05:01:21.616Z,102720.58
2018-04-18T05:02:31.812Z,102723.61
2018-04-18T05:03:37.671Z,102723.66
2018-04-18T05:04:42.021Z,102721.97
2018-04-18T05:05:46.256Z,102725.81
2018-04-18T05:06:54.529Z,102727.58
2018-04-18T05:07:59.958Z,102729.30
2018-04-18T05:09:06.835Z,102737.00
2018-04-18T05:10:11.840Z,102736.62
2018-04-18T05:11:16.051Z,102739.19
2018-04-18T05:12:24.088Z,102736.64
2018-04-18T05:13:33.678Z,102738.37
2018-04-18T05:14:39.702Z,102742.23
2018-04-18T05:15:43.952Z,102741.81
2018-04-18T05:16:53.051Z,102739.33
2018-04-18T05:18:01.354Z,102744.03
2018-04-18T05:19:06.347Z,102743.20
2018-04-18T05:20:10.628Z,102744.49
2018-04-18T05:21:15.012Z,102740.66
2018-04-18T05:22:19.518Z,102745.81
2018-04-18T05:23:28.520Z,102741.11
2018-04-18T05:24:34.371Z,102744.12
2018-04-18T05:25:38.585Z,102747.55
2018-04-18T05:26:43.005Z,102747.13
2018-04-18T05:27:47.213Z,102752.29
2018-04-18T05:28:56.222Z,102753.55
2018-04-18T05:30:00.482Z,102751.41
2018-04-18T05:31:04.827Z,102752.70
2018-04-18T05:32:09.249Z,102755.67
2018-04-18T05:33:13.682Z,102757.80
2018-04-18T05:34:21.673Z,102754.83
2018-04-18T05:35:31.960Z,102755.67
2018-04-18T05:36:38.267Z,102755.23
2018-04-18T05:37:43.252Z,102764.20
2018-04-18T05:38:47.448Z,102766.34
2018-04-18T05:39:58.115Z,102765.49
2018-04-18T05:41:05.661Z,102765.92
2018-04-18T05:42:09.892Z,102767.24
2018-04-18T05:43:29.404Z,102758.70
2018-04-18T05:44:38.390Z,102766.44
2018-04-18T05:45:43.374Z,102770.73
2018-04-18T05:46:47.619Z,102766.45
2018-04-18T05:48:00.370Z,102773.33
2018-04-18T05:49:07.461Z,102780.20
2018-04-18T05:50:11.727Z,102780.63
2018-04-18T05:51:16.706Z,102777.20
2018-04-18T05:52:25.635Z,102779.34
2018-04-18T05:53:37.942Z,102774.66
2018-04-18T05:54:42.277Z,102778.08
2018-04-18T05:55:46.623Z,102776.79
2018-04-18T05:56:58.660Z,102781.09
2018-04-18T05:58:06.622Z,102777.66
2018-04-18T05:59:11.606Z,102784.09
2018-04-18T06:00:15.836Z,102784.95
2018-04-18T06:01:27.443Z,102787.08
2018-04-18T06:02:35.663Z,102785.39
2018-04-18T06:03:39.915Z,102784.12
2018-04-18T06:04:45.666Z,102790.99
2018-04-18T06:05:56.342Z,102790.09
2018-04-18T06:07:06.383Z,102794.38
2018-04-18T06:08:11.365Z,102796.09
2018-04-18T06:09:15.676Z,102797.78
2018-04-18T06:10:26.067Z,102797.79
2018-04-18T06:11:35.020Z,102802.50
2018-04-18T06:12:39.558Z,102803.76
2018-04-18T06:13:43.923Z,102800.78
2018-04-18T06:14:48.260Z,102808.06
2018-04-18T06:15:58.564Z,102802.47
2018-04-18T06:17:06.434Z,102805.05
2018-04-18T06:18:10.671Z,102808.89
2018-04-18T06:19:14.896Z,102811.47
2018-04-18T06:20:22.194Z,102810.17
2018-04-18T06:21:29.548Z,102804.99
2018-04-18T06:22:37.540Z,102812.69
2018-04-18T06:23:42.572Z,102812.69
2018-04-18T06:24:46.782Z,102807.09
2018-04-18T06:25:57.365Z,102812.64
2018-04-18T06:27:05.216Z,102810.06
2018-04-18T06:28:10.241Z,102812.16
2018-04-18T06:29:15.609Z,102810.42
2018-04-18T06:30:27.841Z,102812.12
2018-04-18T06:31:35.627Z,102816.81
2018-04-18T06:32:40.117Z,102817.20
2018-04-18T06:33:44.418Z,102819.72
2018-04-18T06:34:52.070Z,102822.22
2018-04-18T06:36:01.254Z,102821.71
2018-04-18T06:37:07.727Z,102825.10
2018-04-18T06:38:11.972Z,102828.45
2018-04-18T06:39:17.834Z,102824.91
2018-04-18T06:40:29.417Z,102826.18
2018-04-18T06:41:34.379Z,102826.11
2018-04-18T06:42:38.673Z,102826.03
2018-04-18T06:43:43.890Z,102826.86
2018-04-18T06:44:48.375Z,102833.67
2018-04-18T06:45:56.816Z,102830.63
2018-04-18T06:47:03.928Z,102832.27
2018-04-18T06:48:09.378Z,102830.94
2018-04-18T06:49:13.577Z,102827.05
2018-04-18T06:50:17.834Z,102825.31
2018-04-18T06:51:28.694Z,102828.78
2018-04-18T06:52:36.328Z,102829.53
2018-04-18T06:53:40.609Z,102827.78
2018-04-18T06:54:44.830Z,102829.41
2018-04-18T06:55:50.608Z,102831.97
2018-04-18T06:56:58.840Z,102828.12
2018-04-18T06:58:07.824Z,102830.26
2018-04-18T06:59:12.815Z,102833.16
2018-04-18T07:00:17.033Z,102830.50
2018-04-18T07:01:30.850Z,102834.80
2018-04-18T07:02:37.379Z,102840.33
2018-04-18T07:03:41.659Z,102838.56
2018-04-18T07:04:45.870Z,102840.59
2018-04-18T07:05:55.113Z,102837.95
2018-04-18T07:07:03.384Z,102837.38
2018-04-18T07:08:08.752Z,102840.26
2018-04-18T07:09:12.956Z,102838.44
2018-04-18T07:10:17.160Z,102836.60
2018-04-18T07:11:26.163Z,102843.34
2018-04-18T07:12:34.065Z,102840.63
2018-04-18T07:13:38.688Z,102838.45
2018-04-18T07:14:42.930Z,102839.72
2018-04-18T07:15:47.138Z,102842.72
2018-04-18T07:16:58.154Z,102848.28
2018-04-18T07:18:06.728Z,102845.61
2018-04-18T07:19:11.740Z,102841.19
2018-04-18T07:20:15.959Z,102841.02
2018-04-18T07:21:23.686Z,102844.33
2018-04-18T07:22:31.872Z,102843.83
2018-04-18T07:23:37.762Z,102842.96
2018-04-18T07:24:42.150Z,102850.16
2018-04-18T07:25:47.118Z,102849.59
2018-04-18T07:26:55.953Z,102848.67
2018-04-18T07:28:03.452Z,102849.44
2018-04-18T07:29:08.820Z,102848.55
2018-04-18T07:30:13.160Z,102847.22
2018-04-18T07:31:17.385Z,102848.39
2018-04-18T07:32:26.928Z,102845.39
2018-04-18T07:33:36.354Z,102849.58
2018-04-18T07:34:40.575Z,102851.52
2018-04-18T07:35:44.798Z,102847.13
2018-04-18T07:36:51.625Z,102847.06
2018-04-18T07:38:00.538Z,102847.37
2018-04-18T07:39:08.794Z,102847.20
2018-04-18T07:40:13.115Z,102847.02
2018-04-18T07:41:17.669Z,102845.98
2018-04-18T07:42:26.831Z,102849.97
2018-04-18T07:43:34.952Z,102851.24
2018-04-18T07:44:39.221Z,102849.49
2018-04-18T07:45:43.413Z,102849.74
2018-04-18T07:46:49.958Z,102846.90
2018-04-18T07:48:01.529Z,102847.08
2018-04-18T07:49:08.676Z,102848.09
2018-04-18T07:50:12.989Z,102852.22
2018-04-18T07:51:17.198Z,102855.91
2018-04-18T07:52:27.680Z,102852.63
2018-04-18T07:53:35.597Z,102855.02
2018-04-18T07:54:41.048Z,102856.18
2018-04-18T07:55:45.253Z,102857.75
2018-04-18T07:56:57.490Z,102864.03
2018-04-18T07:58:05.642Z,102857.34
2018-04-18T07:59:09.868Z,102865.92
2018-04-18T08:00:14.133Z,102864.80
2018-04-18T08:01:20.884Z,102871.52
2018-04-18T08:02:32.427Z,102868.28
2018-04-18T08:03:39.042Z,102863.72
2018-04-18T08:04:43.462Z,102861.05
2018-04-18T08:05:49.004Z,102865.19
2018-04-18T08:07:02.882Z,102863.77
2018-04-18T08:08:08.886Z,102861.43
2018-04-18T08:09:13.844Z,102860.53
2018-04-18T08:10:18.081Z,102860.16
2018-04-18T08:11:28.024Z,102864.38
2018-04-18T08:12:34.151Z,102861.54
2018-04-18T08:13:40.115Z,102860.43
2018-04-18T08:14:45.462Z,102866.64
2018-04-18T08:15:54.033Z,102863.29
2018-04-18T08:17:04.175Z,102856.53
2018-04-18T08:18:09.217Z,102864.44
2018-04-18T08:19:13.540Z,102856.05
2018-04-18T08:20:17.784Z,102864.47
2018-04-18T08:21:29.897Z,102859.10
2018-04-18T08:22:38.093Z,102857.31
2018-04-18T08:23:42.453Z,102859.45
2018-04-18T08:24:46.871Z,102862.36
2018-04-18T08:25:59.425Z,102861.25
2018-04-18T08:27:07.810Z,102864.13
2018-04-18T08:28:12.083Z,102864.52
2018-04-18T08:29:17.040Z,102862.73
2018-04-18T08:30:27.922Z,102865.57
2018-04-18T08:31:37.293Z,102866.61
2018-04-18T08:32:41.638Z,102861.19
2018-04-18T08:33:46.769Z,102864.33
2018-04-18T08:34:58.050Z,102864.05
2018-04-18T08:36:06.461Z,102863.05
2018-04-18T08:37:11.189Z,102871.43
2018-04-18T08:38:15.399Z,102866.64
2018-04-18T08:39:26.136Z,102871.77
2018-04-18T08:40:39.050Z,102875.41
2018-04-18T08:41:43.345Z,102877.64
2018-04-18T08:42:47.656Z,102873.44
2018-04-18T08:43:56.274Z,102883.98
2018-04-18T08:45:00.512Z,102876.62
2018-04-18T08:46:05.872Z,102878.98
2018-04-18T08:47:10.157Z,102877.37
2018-04-18T08:48:15.218Z,102883.77
2018-04-18T08:49:22.352Z,102884.78
2018-04-18T08:50:29.841Z,102881.92
2018-04-18T08:51:37.192Z,102883.41
2018-04-18T08:52:41.462Z,102887.52
2018-04-18T08:53:46.424Z,102877.32
2018-04-18T08:54:56.895Z,102886.91
2018-04-18T08:56:06.757Z,102880.48
2018-04-18T08:57:11.017Z,102881.53
2018-04-18T08:58:15.242Z,102879.02
2018-04-18T08:59:21.975Z,102877.23
2018-04-18T09:00:32.030Z,102881.25
2018-04-18T09:01:36.317Z,102886.34
2018-04-18T09:02:40.528Z,102881.97
2018-04-18T09:03:44.994Z,102882.98
2018-04-18T09:04:51.692Z,102888.01
2018-04-18T09:05:57.544Z,102888.70
2018-04-18T09:07:03.993Z,102889.39
2018-04-18T09:08:08.337Z,102885.56
2018-04-18T09:09:13.014Z,102888.72
2018-04-18T09:10:17.246Z,102891.10
2018-04-18T09:11:25.832Z,102891.59
2018-04-18T09:12:31.240Z,102891.33
2018-04-18T09:13:37.161Z,102888.03
2018-04-18T09:14:41.406Z,102889.47
2018-04-18T09:15:46.426Z,102890.08
2018-04-18T09:16:52.905Z,102895.89
2018-04-18T09:17:58.835Z,102896.48
2018-04-18T09:19:04.872Z,102891.06
2018-04-18T09:20:09.122Z,102891.97
2018-04-18T09:21:14.490Z,102889.63
2018-04-18T09:22:19.453Z,102889.31
2018-04-18T09:23:25.885Z,102890.84
2018-04-18T09:24:30.878Z,102886.66
2018-04-18T09:25:35.488Z,102884.89
2018-04-18T09:26:40.514Z,102888.09
2018-04-18T09:27:44.731Z,102896.59
2018-04-18T09:28:52.876Z,102893.24
2018-04-18T09:30:00.054Z,102894.27
2018-04-18T09:31:07.209Z,102895.92
2018-04-18T09:32:11.427Z,102897.50
2018-04-18T09:33:15.633Z,102894.05
2018-04-18T09:34:25.857Z,102893.70
2018-04-18T09:35:34.459Z,102889.16
2018-04-18T09:36:39.452Z,102886.41
2018-04-18T09:37:43.677Z,102884.42
2018-04-18T09:38:48.037Z,102887.55
2018-04-18T09:39:58.685Z,102886.03
2018-04-18T09:41:07.823Z,102885.57
2018-04-18T09:42:12.979Z,102887.02
2018-04-18T09:43:17.406Z,102880.19
2018-04-18T09:44:26.765Z,102886.50
2018-04-18T09:45:35.881Z,102887.45
2018-04-18T09:46:40.268Z,102883.66
2018-04-18T09:47:44.574Z,102882.14
2018-04-18T09:48:53.999Z,102886.44
2018-04-18T09:50:03.865Z,102879.45
2018-04-18T09:51:09.841Z,102883.94
2018-04-18T09:52:14.236Z,102879.95
2018-04-18T09:53:21.845Z,102876.75
2018-04-18T09:54:33.906Z,102879.91
2018-04-18T09:55:38.837Z,102880.50
2018-04-18T09:56:43.070Z,102881.47
2018-04-18T09:57:47.294Z,102877.25
2018-04-18T09:58:58.179Z,102874.49
2018-04-18T10:00:07.146Z,102876.82
2018-04-18T10:03:04.465Z,102874.95
2018-04-18T10:04:10.569Z,102882.73
2018-04-18T10:05:15.588Z,102871.16
2018-04-18T10:06:24.150Z,102873.91
2018-04-18T10:07:34.356Z,102878.32
2018-04-18T10:08:39.099Z,102873.95
2018-04-18T10:09:43.310Z,102870.69
2018-04-18T10:10:47.529Z,102867.83
2018-04-18T10:11:59.211Z,102866.52
2018-04-18T10:13:08.638Z,102860.25
2018-04-18T10:14:13.396Z,102865.98
2018-04-18T10:15:17.651Z,102869.20
2018-04-18T10:16:29.211Z,102862.03
2018-04-18T10:17:38.329Z,102867.80
2018-04-18T10:18:42.771Z,102868.48
2018-04-18T10:19:47.088Z,102863.84
2018-04-18T10:20:59.141Z,102865.39
2018-04-18T10:22:06.854Z,102868.82
2018-04-18T10:23:11.883Z,102861.34
2018-04-18T10:24:16.076Z,102860.22
2018-04-18T10:25:23.762Z,102869.11
2018-04-18T10:26:33.915Z,102867.20
2018-04-18T10:27:39.397Z,102862.31
2018-04-18T10:28:43.756Z,102866.30
2018-04-18T10:29:48.478Z,102870.66
2018-04-18T10:30:57.909Z,102867.48
2018-04-18T10:32:05.463Z,102866.48
2018-04-18T10:33:10.436Z,102866.67
2018-04-18T10:34:14.696Z,102867.42
2018-04-18T10:35:20.683Z,102869.30
2018-04-18T10:36:28.045Z,102863.65
2018-04-18T10:37:35.210Z,102862.75
2018-04-18T10:38:39.431Z,102862.09
2018-04-18T10:39:43.671Z,102864.79
2018-04-18T10:40:47.861Z,102863.33
2018-04-18T10:41:59.922Z,102863.33
2018-04-18T10:43:08.976Z,102865.08
2018-04-18T10:44:13.997Z,102861.75
2018-04-18T10:45:18.990Z,102861.65
2018-04-18T10:46:31.794Z,102858.84
2018-04-18T10:47:39.481Z,102862.20
2018-04-18T10:48:43.852Z,102860.98
2018-04-18T10:49:48.561Z,102857.33
2018-04-18T10:51:02.232Z,102859.22
2018-04-18T10:52:09.048Z,102853.37
2018-04-18T10:53:13.266Z,102856.67
2018-04-18T10:54:17.733Z,102852.63
2018-04-18T10:55:34.773Z,102854.84
2018-04-18T10:56:39.606Z,102859.83
2018-04-18T10:57:43.983Z,102854.83
2018-04-18T10:58:53.067Z,102856.72
2018-04-18T11:00:03.290Z,102850.03
2018-04-18T11:01:09.124Z,102860.72
2018-04-18T11:02:13.352Z,102853.59
2018-04-18T11:03:17.956Z,102852.72
2018-04-18T11:04:27.909Z,102855.06
2018-04-18T11:05:35.495Z,102854.77
2018-04-18T11:06:40.668Z,102861.11
2018-04-18T11:07:44.974Z,102858.94
2018-04-18T11:08:54.562Z,102850.70
2018-04-18T11:10:03.440Z,102850.23
2018-04-18T11:11:10.739Z,102846.27
2018-04-18T11:12:14.964Z,102853.30
2018-04-18T11:13:25.408Z,102843.89
2018-04-18T11:14:35.183Z,102857.23
2018-04-18T11:15:40.338Z,102851.75
2018-04-18T11:16:44.585Z,102852.32
2018-04-18T11:17:55.941Z,102853.70
2018-04-18T11:19:05.585Z,102846.41
2018-04-18T11:20:10.697Z,102852.31
2018-04-18T11:21:14.950Z,102847.08
2018-04-18T11:22:24.037Z,102845.56
2018-04-18T11:23:33.808Z,102844.27
2018-04-18T11:24:39.642Z,102848.17
2018-04-18T11:25:43.862Z,102845.36
2018-04-18T11:26:48.071Z,102842.34
2018-04-18T11:28:02.472Z,102847.55
2018-04-18T11:29:07.390Z,102852.28
2018-04-18T11:30:12.431Z,102848.52
2018-04-18T11:31:16.749Z,102851.52
2018-04-18T11:32:26.425Z,102852.42
2018-04-18T11:33:34.567Z,102845.23
2018-04-18T11:34:39.603Z,102849.59
2018-04-18T11:35:43.830Z,102852.52
2018-04-18T11:36:48.277Z,102850.63
2018-04-18T11:38:00.088Z,102847.88
2018-04-18T11:39:05.546Z,102849.80
2018-04-18T11:40:09.884Z,102849.58
2018-04-18T11:41:14.072Z,102850.59
2018-04-18T11:42:19.321Z,102848.38
2018-04-18T11:43:24.030Z,102847.33
2018-04-18T11:44:29.061Z,102847.95
2018-04-18T11:45:33.337Z,102856.78
2018-04-18T11:46:37.719Z,102851.39
2018-04-18T11:47:41.926Z,102850.63
2018-04-18T11:48:46.141Z,102852.30
2018-04-18T11:49:50.431Z,102852.55
2018-04-18T11:50:55.578Z,102851.08
2018-04-18T11:52:01.473Z,102852.91
2018-04-18T11:53:05.853Z,102851.38
2018-04-18T11:54:10.357Z,102854.45
2018-04-18T11:55:14.565Z,102855.41
2018-04-18T11:56:19.106Z,102844.13
2018-04-18T11:57:23.425Z,102844.02
2018-04-18T11:58:27.747Z,102853.23
2018-04-18T11:59:32.119Z,102844.70
2018-04-18T12:00:36.315Z,102840.24
2018-04-18T12:01:41.270Z,102840.70
2018-04-18T12:02:45.579Z,102846.36
2018-04-18T12:03:50.495Z,102850.05
2018-04-18T12:04:54.756Z,102844.59
2018-04-18T12:05:59.033Z,102842.44
2018-04-18T12:07:03.261Z,102836.42
2018-04-18T12:08:07.513Z,102843.42
2018-04-18T12:09:11.877Z,102839.41
2018-04-18T12:10:16.073Z,102840.10
2018-04-18T12:11:20.367Z,102844.27
2018-04-18T12:12:26.593Z,102842.00
2018-04-18T12:13:32.050Z,102841.01
2018-04-18T12:14:36.293Z,102841.47
2018-04-18T12:15:41.447Z,102835.31
2018-04-18T12:16:45.843Z,102839.10
2018-04-18T12:17:50.084Z,102839.13
2018-04-18T12:18:54.460Z,102835.09
2018-04-18T12:19:58.729Z,102841.72
2018-04-18T12:21:05.109Z,102836.37
2018-04-18T12:22:09.301Z,102837.72
2018-04-18T12:23:13.506Z,102834.66
2018-04-18T12:24:17.704Z,102833.52
2018-04-18T12:25:22.668Z,102836.77
2018-04-18T12:26:28.162Z,102837.98
2018-04-18T12:27:32.434Z,102836.42
2018-04-18T12:28:37.605Z,102841.89
2018-04-18T12:29:42.018Z,102842.14
2018-04-18T12:30:46.329Z,102839.19
2018-04-18T12:31:51.653Z,102845.56
2018-04-18T12:32:58.143Z,102838.97
2018-04-18T12:34:03.105Z,102836.16
2018-04-18T12:35:07.318Z,102839.03
2018-04-18T12:36:11.685Z,102832.47
2018-04-18T12:37:15.968Z,102834.45
2018-04-18T12:38:21.143Z,102829.92
2018-04-18T12:39:25.966Z,102830.69
2018-04-18T12:40:30.696Z,102826.97
2018-04-18T12:41:34.897Z,102824.92
2018-04-18T12:42:39.548Z,102829.13
2018-04-18T12:43:43.825Z,102825.00
2018-04-18T12:44:48.010Z,102819.74
2018-04-18T12:45:53.276Z,102828.59
2018-04-18T12:46:58.820Z,102821.24
2018-04-18T12:48:04.760Z,102821.93
2018-04-18T12:49:08.986Z,102827.79
2018-04-18T12:50:13.177Z,102818.48